createdAt,value
2018-06-17T00:00:33.478Z,9.90
2018-06-17T00:03:01.950Z,10.67
2018-06-17T00:05:30.438Z,10.30
2018-06-17T00:07:58.938Z,9.70
2018-06-17T00:10:27.529Z,9.90
2018-06-17T00:12:56.039Z,11.03
2018-06-17T00:15:24.563Z,10.90
2018-06-17T00:17:53.045Z,9.90
2018-06-17T00:20:21.633Z,10.37
2018-06-17T00:22:50.240Z,11.20
2018-06-17T00:25:19.424Z,10.07
2018-06-17T00:27:48.062Z,10.30
2018-06-17T00:30:16.525Z,11.13
2018-06-17T00:32:45.017Z,10.73
2018-06-17T00:35:13.538Z,10.47
2018-06-17T00:37:42.123Z,10.73
2018-06-17T00:40:10.680Z,9.73
2018-06-17T00:42:39.142Z,10.83
2018-06-17T00:45:07.646Z,10.87
2018-06-17T00:47:37.850Z,8.93
2018-06-17T00:50:06.833Z,9.03
2018-06-17T00:52:35.530Z,7.70
2018-06-17T00:55:04.061Z,8.43
2018-06-17T00:57:46.449Z,7.67
2018-06-17T01:00:14.933Z,7.73
2018-06-17T01:02:43.739Z,6.30
2018-06-17T01:05:12.253Z,7.30
2018-06-17T01:07:40.925Z,7.33
2018-06-17T01:10:09.733Z,5.30
2018-06-17T01:12:38.406Z,6.53
2018-06-17T01:15:07.121Z,5.37
2018-06-17T01:17:36.053Z,6.83
2018-06-17T01:20:04.882Z,5.67
2018-06-17T01:22:33.357Z,5.30
2018-06-17T01:25:02.249Z,4.60
2018-06-17T01:27:30.741Z,5.13
2018-06-17T01:29:59.349Z,4.30
2018-06-17T01:32:27.826Z,4.73
2018-06-17T01:34:56.634Z,5.03
2018-06-17T01:37:25.105Z,4.80
2018-06-17T01:39:53.658Z,5.03
2018-06-17T01:42:22.648Z,5.17
2018-06-17T01:44:51.126Z,6.43
2018-06-17T01:47:19.594Z,5.90
2018-06-17T01:49:48.114Z,5.60
2018-06-17T01:52:16.725Z,5.20
2018-06-17T01:54:45.221Z,5.00
2018-06-17T01:57:13.721Z,5.33
2018-06-17T01:59:42.270Z,5.30
2018-06-17T02:02:10.770Z,5.07
2018-06-17T02:04:44.823Z,4.50
2018-06-17T02:07:18.594Z,5.23
2018-06-17T02:09:52.981Z,5.23
2018-06-17T02:12:21.445Z,4.57
2018-06-17T02:14:56.702Z,5.10
2018-06-17T02:17:26.093Z,4.90
2018-06-17T02:19:55.109Z,5.47
2018-06-17T02:22:24.088Z,4.80
2018-06-17T02:24:52.565Z,4.90
2018-06-17T02:27:21.301Z,3.80
2018-06-17T02:29:49.837Z,4.90
2018-06-17T02:32:18.312Z,4.57
2018-06-17T02:34:46.806Z,4.40
2018-06-17T02:37:15.878Z,4.60
2018-06-17T02:39:44.359Z,5.10
2018-06-17T02:42:13.041Z,4.73
2018-06-17T02:44:41.511Z,4.30
2018-06-17T02:47:15.383Z,6.27
2018-06-17T02:49:47.315Z,6.17
2018-06-17T02:52:21.088Z,5.47
2018-06-17T02:54:49.800Z,5.40
2018-06-17T02:57:19.553Z,6.37
2018-06-17T02:59:48.619Z,5.57
2018-06-17T03:02:17.437Z,5.10
2018-06-17T03:04:45.889Z,6.80
2018-06-17T03:07:14.397Z,5.63
2018-06-17T03:09:42.862Z,5.07
2018-06-17T03:12:11.350Z,5.80
2018-06-17T03:14:39.859Z,5.57
2018-06-17T03:17:08.357Z,6.20
2018-06-17T03:19:38.303Z,6.80
2018-06-17T03:22:06.886Z,6.10
2018-06-17T03:24:41.702Z,5.83
2018-06-17T03:27:15.564Z,5.33
2018-06-17T03:29:49.497Z,6.50
2018-06-17T03:32:23.241Z,5.63
2018-06-17T03:34:57.241Z,5.70
2018-06-17T03:37:25.737Z,6.40
2018-06-17T03:39:54.818Z,6.10
2018-06-17T03:42:24.214Z,6.40
2018-06-17T03:44:52.729Z,6.20
2018-06-17T03:47:21.225Z,5.10
2018-06-17T03:49:49.705Z,5.50
2018-06-17T03:52:18.202Z,6.10
2018-06-17T03:54:47.218Z,6.07
2018-06-17T03:57:16.237Z,5.70
2018-06-17T03:59:44.708Z,5.53
2018-06-17T04:02:13.189Z,5.20
2018-06-17T04:04:47.057Z,4.60
2018-06-17T04:07:15.982Z,4.53
2018-06-17T04:09:44.534Z,4.80
2018-06-17T04:12:12.999Z,4.17
2018-06-17T04:14:41.957Z,3.80
2018-06-17T04:17:15.012Z,4.70
2018-06-17T04:19:45.182Z,5.00
2018-06-17T04:22:16.600Z,4.37
2018-06-17T04:24:45.106Z,5.00
2018-06-17T04:27:13.578Z,3.93
2018-06-17T04:29:42.154Z,4.20
2018-06-17T04:32:12.266Z,4.37
2018-06-17T04:34:40.744Z,4.53
2018-06-17T04:37:09.202Z,3.90
2018-06-17T04:39:38.042Z,4.53
2018-06-17T04:42:06.637Z,4.93
2018-06-17T04:44:35.556Z,4.50
2018-06-17T04:47:04.029Z,5.10
2018-06-17T04:49:32.551Z,5.27
2018-06-17T04:52:01.191Z,4.87
2018-06-17T04:54:29.669Z,4.00
2018-06-17T04:56:58.157Z,5.90
2018-06-17T04:59:27.251Z,4.00
2018-06-17T05:01:55.729Z,3.60
2018-06-17T05:04:24.201Z,3.80
2018-06-17T05:06:53.338Z,4.13
2018-06-17T05:09:21.837Z,4.20
2018-06-17T05:11:50.313Z,4.23
2018-06-17T05:14:18.881Z,4.10
2018-06-17T05:16:47.349Z,3.77
2018-06-17T05:19:16.261Z,4.30
2018-06-17T05:21:44.733Z,4.10
2018-06-17T05:24:14.033Z,4.27
2018-06-17T05:26:42.746Z,4.60
2018-06-17T05:29:11.251Z,5.40
2018-06-17T05:31:39.758Z,4.53
2018-06-17T05:34:08.362Z,4.10
2018-06-17T05:36:36.904Z,4.40
2018-06-17T05:39:09.050Z,4.00
2018-06-17T05:41:37.549Z,5.50
2018-06-17T05:44:06.670Z,5.27
2018-06-17T05:46:35.479Z,4.80
2018-06-17T05:49:03.979Z,4.60
2018-06-17T05:51:32.686Z,4.63
2018-06-17T05:54:01.198Z,4.87
2018-06-17T05:56:29.992Z,4.43
2018-06-17T05:58:58.493Z,4.60
2018-06-17T06:01:27.049Z,4.03
2018-06-17T06:03:56.028Z,5.37
2018-06-17T06:06:25.269Z,4.93
2018-06-17T06:08:53.764Z,6.23
2018-06-17T06:11:22.709Z,5.67
2018-06-17T06:13:51.200Z,6.00
2018-06-17T06:16:19.697Z,6.30
2018-06-17T06:18:48.270Z,7.53
2018-06-17T06:21:16.753Z,7.13
2018-06-17T06:23:45.243Z,7.70
2018-06-17T06:26:13.761Z,5.87
2018-06-17T06:28:42.262Z,7.20
2018-06-17T06:31:10.756Z,7.43
2018-06-17T06:33:39.253Z,7.10
2018-06-17T06:36:07.701Z,7.10
2018-06-17T06:38:36.233Z,6.60
2018-06-17T06:41:04.774Z,7.13
2018-06-17T06:43:33.427Z,7.60
2018-06-17T06:46:02.155Z,7.60
2018-06-17T06:48:30.654Z,7.57
2018-06-17T06:50:59.229Z,7.23
2018-06-17T06:53:27.968Z,8.43
2018-06-17T06:55:56.450Z,6.73
2018-06-17T06:58:24.925Z,7.50
2018-06-17T07:00:53.466Z,6.70
2018-06-17T07:03:33.277Z,8.17
2018-06-17T07:06:13.046Z,7.23
2018-06-17T07:08:52.841Z,6.90
2018-06-17T07:11:21.350Z,6.60
2018-06-17T07:13:49.855Z,7.60
2018-06-17T07:16:29.727Z,6.73
2018-06-17T07:18:58.264Z,8.03
2018-06-17T07:21:26.729Z,6.30
2018-06-17T07:23:55.293Z,7.70
2018-06-17T07:26:39.342Z,7.77
2018-06-17T07:29:19.574Z,7.80
2018-06-17T07:31:48.136Z,7.00
2018-06-17T07:34:17.053Z,8.07
2018-06-17T07:36:45.578Z,8.70
2018-06-17T07:39:27.941Z,8.77
2018-06-17T07:41:56.407Z,9.47
2018-06-17T07:44:24.877Z,9.10
2018-06-17T07:46:53.858Z,9.30
2018-06-17T07:49:51.197Z,9.23
2018-06-17T07:52:32.250Z,10.50
2018-06-17T07:55:00.721Z,11.37
2018-06-17T07:57:31.422Z,10.00
2018-06-17T07:59:59.935Z,8.77
2018-06-17T08:02:28.543Z,9.20
2018-06-17T08:04:57.041Z,9.83
2018-06-17T08:07:25.505Z,8.27
2018-06-17T08:09:54.220Z,10.07
2018-06-17T08:12:22.802Z,8.87
2018-06-17T08:14:51.337Z,8.60
2018-06-17T08:17:19.846Z,7.83
2018-06-17T08:19:48.450Z,8.63
2018-06-17T08:22:16.973Z,8.27
2018-06-17T08:24:45.529Z,9.10
2018-06-17T08:27:14.029Z,9.30
2018-06-17T08:29:42.656Z,10.27
2018-06-17T08:32:11.121Z,9.07
2018-06-17T08:34:39.673Z,9.40
2018-06-17T08:37:08.196Z,10.33
2018-06-17T08:39:36.677Z,10.60
2018-06-17T08:42:05.258Z,9.70
2018-06-17T08:44:33.875Z,8.40
2018-06-17T08:47:02.365Z,8.60
2018-06-17T08:49:30.848Z,9.23
2018-06-17T08:51:59.354Z,9.07
2018-06-17T08:54:27.914Z,9.00
2018-06-17T08:56:56.401Z,8.70
2018-06-17T08:59:25.005Z,8.40
2018-06-17T09:01:53.707Z,8.13
2018-06-17T09:04:22.193Z,7.30
2018-06-17T09:06:50.761Z,8.30
2018-06-17T09:09:19.468Z,7.43
2018-06-17T09:11:48.021Z,7.63
2018-06-17T09:14:16.564Z,7.33
2018-06-17T09:16:45.933Z,7.60
2018-06-17T09:19:14.832Z,6.70
2018-06-17T09:21:43.297Z,7.57
2018-06-17T09:24:11.866Z,7.07
2018-06-17T09:26:40.394Z,7.57
2018-06-17T09:29:08.926Z,6.87
2018-06-17T09:31:37.473Z,7.10
2018-06-17T09:34:06.313Z,5.97
2018-06-17T09:36:34.857Z,6.50
2018-06-17T09:39:04.326Z,6.20
2018-06-17T09:41:32.834Z,5.70
2018-06-17T09:44:01.401Z,7.37
2018-06-17T09:46:29.922Z,6.43
2018-06-17T09:48:58.419Z,7.13
2018-06-17T09:51:26.952Z,7.30
2018-06-17T09:53:55.459Z,6.97
2018-06-17T09:56:24.037Z,6.60
2018-06-17T09:58:53.040Z,7.10
2018-06-17T10:01:21.598Z,6.27
2018-06-17T10:03:50.109Z,5.90
2018-06-17T10:06:18.632Z,6.60
2018-06-17T10:08:47.277Z,6.60
2018-06-17T10:11:15.825Z,7.07
2018-06-17T10:13:45.157Z,6.40
2018-06-17T10:16:14.494Z,5.70
2018-06-17T10:18:43.158Z,6.57
2018-06-17T10:21:11.679Z,5.57
2018-06-17T10:23:40.410Z,5.77
2018-06-17T10:26:08.913Z,6.20
2018-06-17T10:28:37.573Z,5.97
2018-06-17T10:31:07.213Z,5.43
2018-06-17T10:33:36.686Z,5.57
2018-06-17T10:36:05.387Z,5.60
2018-06-17T10:38:33.905Z,6.63
2018-06-17T10:41:02.422Z,5.47
2018-06-17T10:43:32.064Z,5.20
2018-06-17T10:46:00.582Z,6.13
2018-06-17T10:48:29.115Z,5.50
2018-06-17T10:50:58.046Z,6.10
2018-06-17T10:53:26.554Z,6.10
2018-06-17T10:55:55.849Z,6.70
2018-06-17T10:58:24.158Z,6.77
2018-06-17T11:00:52.665Z,5.87
2018-06-17T11:03:21.154Z,4.90
2018-06-17T11:05:49.660Z,4.70
2018-06-17T11:08:18.278Z,5.47
2018-06-17T11:10:46.759Z,6.00
2018-06-17T11:13:15.753Z,5.23
2018-06-17T11:15:44.815Z,5.13
2018-06-17T11:18:13.289Z,7.53
2018-06-17T11:20:41.765Z,5.77
2018-06-17T11:23:10.298Z,6.40
2018-06-17T11:25:38.780Z,4.90
2018-06-17T11:28:07.414Z,5.43
2018-06-17T11:30:35.892Z,5.57
2018-06-17T11:33:04.511Z,4.80
2018-06-17T11:35:33.077Z,4.50
2018-06-17T11:38:01.641Z,4.20
2018-06-17T11:40:30.173Z,5.23
2018-06-17T11:42:58.650Z,4.10
2018-06-17T11:45:27.337Z,4.10
2018-06-17T11:47:55.836Z,4.40
2018-06-17T11:50:24.335Z,4.23
2018-06-17T11:52:52.829Z,4.00
2018-06-17T11:55:21.321Z,4.83
2018-06-17T11:57:49.838Z,3.70
2018-06-17T12:00:18.354Z,3.53
2018-06-17T12:02:46.846Z,4.37
2018-06-17T12:05:16.407Z,3.90
2018-06-17T12:07:44.911Z,3.80
2018-06-17T12:10:13.452Z,4.30
2018-06-17T12:12:42.288Z,3.93
2018-06-17T12:15:10.780Z,4.30
2018-06-17T12:17:39.306Z,5.00
2018-06-17T12:20:07.900Z,4.63
2018-06-17T12:22:36.381Z,4.00
2018-06-17T12:25:04.874Z,4.90
2018-06-17T12:27:33.461Z,3.83
2018-06-17T12:30:01.960Z,4.80
2018-06-17T12:32:30.466Z,5.80
2018-06-17T12:34:58.986Z,4.90
2018-06-17T12:37:27.470Z,4.80
2018-06-17T12:39:56.039Z,4.50
2018-06-17T12:42:24.550Z,5.10
2018-06-17T12:44:53.050Z,5.33
2018-06-17T12:47:21.785Z,5.20
2018-06-17T12:49:50.275Z,5.00
2018-06-17T12:52:18.914Z,5.13
2018-06-17T12:54:47.549Z,5.33
2018-06-17T12:57:16.016Z,3.60
2018-06-17T12:59:44.505Z,3.83
2018-06-17T13:02:12.982Z,3.93
2018-06-17T13:04:41.688Z,4.17
2018-06-17T13:07:10.166Z,3.80
2018-06-17T13:09:38.658Z,4.47
2018-06-17T13:12:07.353Z,4.20
2018-06-17T13:14:35.886Z,4.03
2018-06-17T13:17:04.691Z,4.20
2018-06-17T13:19:33.175Z,4.37
2018-06-17T13:22:02.087Z,4.10
2018-06-17T13:24:30.542Z,4.87
2018-06-17T13:26:59.039Z,4.60
2018-06-17T13:29:27.552Z,4.67
2018-06-17T13:31:56.046Z,4.30
2018-06-17T13:34:25.070Z,4.47
2018-06-17T13:36:53.679Z,5.13
2018-06-17T13:39:22.151Z,5.17
2018-06-17T13:41:50.693Z,5.80
2018-06-17T13:44:19.166Z,5.23
2018-06-17T13:46:47.680Z,5.17
2018-06-17T13:49:16.201Z,5.63
2018-06-17T13:51:44.753Z,5.93
2018-06-17T13:54:13.277Z,4.90
2018-06-17T13:56:41.830Z,5.30
2018-06-17T13:59:10.308Z,5.10
2018-06-17T14:01:38.973Z,4.83
2018-06-17T14:04:07.482Z,6.10
2018-06-17T14:06:36.006Z,5.10
2018-06-17T14:09:06.497Z,4.87
2018-06-17T14:11:34.985Z,4.70
2018-06-17T14:14:04.369Z,5.43
2018-06-17T14:16:32.842Z,4.83
2018-06-17T14:19:01.338Z,5.20
2018-06-17T14:21:29.933Z,5.33
2018-06-17T14:23:58.404Z,5.60
2018-06-17T14:26:27.205Z,5.37
2018-06-17T14:28:55.681Z,4.93
2018-06-17T14:31:24.271Z,5.10
2018-06-17T14:33:52.685Z,5.10
2018-06-17T14:36:21.396Z,5.90
2018-06-17T14:38:49.984Z,5.87
2018-06-17T14:41:19.826Z,5.60
2018-06-17T14:43:53.454Z,5.90
2018-06-17T14:46:27.522Z,5.60
2018-06-17T14:50:00.920Z,6.07
2018-06-17T14:52:36.871Z,6.23
2018-06-17T14:55:05.389Z,5.10
2018-06-17T14:57:33.932Z,5.47
2018-06-17T15:00:02.583Z,5.40
2018-06-17T15:02:31.284Z,5.80
2018-06-17T15:04:59.822Z,5.77
2018-06-17T15:07:28.302Z,5.47
2018-06-17T15:09:56.786Z,4.50
2018-06-17T15:12:25.312Z,5.60
2018-06-17T15:14:53.822Z,5.60
2018-06-17T15:17:22.344Z,5.10
2018-06-17T15:19:50.840Z,5.30
2018-06-17T15:22:19.365Z,4.67
2018-06-17T15:24:48.046Z,4.53
2018-06-17T15:27:16.671Z,4.63
2018-06-17T15:29:45.201Z,5.37
2018-06-17T15:32:19.045Z,4.10
2018-06-17T15:34:52.774Z,4.63
2018-06-17T15:37:26.909Z,3.93
2018-06-17T15:39:56.683Z,3.87
2018-06-17T15:42:25.289Z,4.63
2018-06-17T15:44:53.769Z,4.63
2018-06-17T15:47:29.003Z,3.70
2018-06-17T15:49:57.678Z,3.93
2018-06-17T15:52:26.145Z,4.10
2018-06-17T15:54:54.734Z,4.60
2018-06-17T15:57:23.305Z,4.90
2018-06-17T15:59:51.793Z,4.20
2018-06-17T16:02:20.375Z,5.57
2018-06-17T16:04:48.881Z,4.80
2018-06-17T16:07:17.366Z,5.37
2018-06-17T16:09:46.066Z,5.10
2018-06-17T16:12:19.868Z,5.53
2018-06-17T16:14:53.609Z,5.00
2018-06-17T16:17:27.310Z,5.20
2018-06-17T16:20:01.541Z,5.30
2018-06-17T16:22:30.015Z,4.80
2018-06-17T16:24:58.511Z,5.17
2018-06-17T16:27:27.219Z,4.77
2018-06-17T16:29:57.671Z,5.10
2018-06-17T16:32:26.212Z,4.70
2018-06-17T16:34:54.815Z,4.97
2018-06-17T16:37:23.329Z,5.00
2018-06-17T16:39:51.895Z,5.60
2018-06-17T16:42:20.410Z,4.93
2018-06-17T16:44:49.358Z,5.23
2018-06-17T16:47:18.078Z,5.23
2018-06-17T16:49:46.577Z,4.63
2018-06-17T16:52:20.372Z,4.57
2018-06-17T16:54:54.287Z,4.50
2018-06-17T16:57:28.121Z,4.90
2018-06-17T17:00:14.042Z,4.70
2018-06-17T17:02:43.677Z,5.60
2018-06-17T17:05:12.357Z,4.90
2018-06-17T17:07:41.455Z,4.17
2018-06-17T17:10:09.962Z,3.30
2018-06-17T17:12:39.408Z,3.93
2018-06-17T17:15:08.561Z,5.00
2018-06-17T17:17:37.045Z,5.13
2018-06-17T17:20:05.815Z,6.00
2018-06-17T17:22:34.326Z,4.90
2018-06-17T17:25:03.073Z,6.07
2018-06-17T17:27:31.556Z,6.03
2018-06-17T17:30:00.018Z,6.40
2018-06-17T17:32:33.863Z,6.80
2018-06-17T17:35:07.576Z,6.77
2018-06-17T17:37:41.424Z,7.20
2018-06-17T17:40:15.044Z,8.03
2018-06-17T17:42:43.835Z,7.13
2018-06-17T17:45:17.984Z,7.43
2018-06-17T17:47:46.600Z,7.00
2018-06-17T17:50:15.095Z,7.53
2018-06-17T17:52:43.701Z,7.57
2018-06-17T17:55:12.322Z,8.63
2018-06-17T17:57:40.841Z,6.70
2018-06-17T18:00:09.846Z,7.87
2018-06-17T18:02:38.407Z,7.17
2018-06-17T18:05:07.041Z,7.07
2018-06-17T18:07:35.516Z,6.03
2018-06-17T18:10:04.218Z,5.67
2018-06-17T18:12:32.704Z,5.90
2018-06-17T18:15:01.182Z,6.70
2018-06-17T18:17:29.715Z,5.70
2018-06-17T18:19:58.357Z,5.20
2018-06-17T18:22:27.137Z,5.93
2018-06-17T18:25:00.929Z,5.83
2018-06-17T18:27:34.586Z,5.27
2018-06-17T18:30:08.444Z,6.40
2018-06-17T18:32:42.346Z,5.90
2018-06-17T18:35:16.002Z,6.60
2018-06-17T18:37:44.625Z,5.37
2018-06-17T18:40:13.073Z,6.10
2018-06-17T18:42:41.633Z,5.60
2018-06-17T18:45:10.181Z,6.40
2018-06-17T18:47:38.686Z,6.40
2018-06-17T18:50:07.198Z,6.00
2018-06-17T18:52:35.706Z,6.97
2018-06-17T18:55:04.484Z,6.33
2018-06-17T18:57:32.946Z,6.43
2018-06-17T19:00:01.429Z,6.70
2018-06-17T19:02:29.941Z,7.47
2018-06-17T19:04:58.538Z,6.67
2018-06-17T19:07:27.410Z,7.40
2018-06-17T19:10:01.361Z,7.57
2018-06-17T19:12:35.125Z,7.30
2018-06-17T19:15:08.939Z,7.47
2018-06-17T19:17:43.285Z,7.97
2018-06-17T19:20:12.033Z,6.93
2018-06-17T19:22:40.585Z,7.10
2018-06-17T19:25:09.710Z,7.80
2018-06-17T19:27:38.206Z,8.00
2018-06-17T19:30:06.789Z,7.13
2018-06-17T19:32:35.277Z,7.43
2018-06-17T19:35:03.806Z,7.93
2018-06-17T19:37:32.262Z,7.10
2018-06-17T19:40:00.904Z,7.90
2018-06-17T19:42:29.364Z,7.50
2018-06-17T19:44:57.813Z,8.10
2018-06-17T19:47:26.329Z,7.90
2018-06-17T19:49:59.963Z,7.43
2018-06-17T19:52:33.761Z,7.40
2018-06-17T19:55:07.589Z,7.57
2018-06-17T19:57:41.309Z,7.90
2018-06-17T20:00:15.076Z,8.10
2018-06-17T20:02:43.539Z,8.50
2018-06-17T20:05:12.061Z,7.80
2018-06-17T20:07:40.526Z,7.23
2018-06-17T20:10:09.513Z,6.97
2018-06-17T20:12:37.989Z,7.47
2018-06-17T20:15:06.778Z,5.80
2018-06-17T20:17:35.287Z,6.43
2018-06-17T20:20:04.111Z,6.37
2018-06-17T20:22:32.605Z,5.97
2018-06-17T20:25:01.065Z,5.67
2018-06-17T20:27:29.614Z,7.13
2018-06-17T20:29:58.094Z,6.43
2018-06-17T20:32:32.122Z,6.07
2018-06-17T20:35:05.861Z,6.47
2018-06-17T20:37:39.569Z,6.20
2018-06-17T20:40:13.406Z,6.70
2018-06-17T20:42:48.176Z,6.67
2018-06-17T20:45:16.890Z,5.93
2018-06-17T20:47:45.446Z,6.60
2018-06-17T20:50:14.041Z,6.67
2018-06-17T20:52:42.500Z,5.57
2018-06-17T20:55:11.124Z,5.60
2018-06-17T20:57:39.640Z,5.53
2018-06-17T21:00:08.818Z,5.90
2018-06-17T21:02:37.424Z,5.80
2018-06-17T21:05:06.115Z,5.20
2018-06-17T21:07:34.571Z,5.50
2018-06-17T21:10:03.061Z,5.10
2018-06-17T21:12:31.900Z,5.83
2018-06-17T21:15:04.765Z,5.67
2018-06-17T21:17:33.434Z,5.80
2018-06-17T21:21:05.717Z,5.37
2018-06-17T21:23:39.365Z,5.20
2018-06-17T21:26:13.118Z,5.47
2018-06-17T21:28:41.618Z,4.70
2018-06-17T21:31:10.325Z,4.93
2018-06-17T21:33:39.003Z,4.80
2018-06-17T21:36:07.565Z,5.30
2018-06-17T21:38:36.076Z,5.07
2018-06-17T21:41:04.686Z,5.30
2018-06-17T21:43:33.185Z,5.57
2018-06-17T21:46:01.654Z,5.00
2018-06-17T21:48:30.158Z,5.13
2018-06-17T21:50:58.737Z,6.00
2018-06-17T21:53:27.217Z,5.20
2018-06-17T21:55:55.682Z,5.37
2018-06-17T21:58:29.909Z,5.50
2018-06-17T22:00:58.442Z,6.17
2018-06-17T22:03:26.933Z,5.63
2018-06-17T22:05:55.806Z,5.37
2018-06-17T22:08:29.369Z,6.67
2018-06-17T22:11:03.184Z,6.77
2018-06-17T22:13:36.857Z,5.70
2018-06-17T22:16:10.607Z,5.80
2018-06-17T22:18:39.065Z,6.23
2018-06-17T22:21:07.606Z,7.17
2018-06-17T22:23:36.096Z,6.90
2018-06-17T22:26:04.665Z,7.23
2018-06-17T22:28:33.182Z,6.20
2018-06-17T22:31:01.654Z,7.70
2018-06-17T22:33:30.198Z,8.10
2018-06-17T22:35:58.687Z,7.40
2018-06-17T22:38:27.170Z,7.80
2018-06-17T22:40:55.945Z,8.33
2018-06-17T22:43:24.414Z,7.30
2018-06-17T22:45:52.897Z,7.70
2018-06-17T22:48:21.381Z,8.67
2018-06-17T22:50:49.837Z,7.70
2018-06-17T22:53:29.709Z,7.70
2018-06-17T22:55:58.157Z,7.17
2018-06-17T22:58:31.973Z,8.53
2018-06-17T23:01:05.826Z,8.10
2018-06-17T23:03:39.778Z,8.83
2018-06-17T23:06:13.529Z,8.90
2018-06-17T23:08:47.330Z,8.20
2018-06-17T23:11:15.843Z,9.03
2018-06-17T23:13:44.321Z,9.47
2018-06-17T23:16:12.777Z,9.60
2018-06-17T23:18:41.311Z,9.10
2018-06-17T23:21:09.792Z,9.80
2018-06-17T23:23:38.258Z,10.63
2018-06-17T23:26:06.744Z,10.60
2018-06-17T23:28:35.224Z,11.07
2018-06-17T23:31:03.753Z,10.23
2018-06-17T23:33:32.225Z,10.70
2018-06-17T23:36:00.696Z,11.27
2018-06-17T23:38:29.202Z,9.57
2018-06-17T23:40:57.664Z,11.70
2018-06-17T23:43:26.158Z,10.87
2018-06-17T23:45:59.768Z,10.13
2018-06-17T23:48:33.581Z,10.87
2018-06-17T23:51:07.489Z,10.80
2018-06-17T23:53:41.157Z,10.33
2018-06-17T23:56:10.311Z,10.97
2018-06-17T23:58:39.583Z,11.40
